sensor_id;sensor_type;location;lat;lon;timestamp;pressure;altitude;pressure_sealevel;temperature;humidity
48390;BME280;34643;47.964;7.982;2024-03-23T00:53:40;96129.75;;;19.94;54.11
48390;BME280;34643;47.964;7.982;2024-03-23T00:56:05;96125.50;;;19.93;53.91
48390;BME280;34643;47.964;7.982;2024-03-23T00:58:31;96129.91;;;19.93;54.09
48390;BME280;34643;47.964;7.982;2024-03-23T01:00:56;96124.66;;;19.93;54.15
48390;BME280;34643;47.964;7.982;2024-03-23T01:03:21;96111.72;;;19.91;54.13
48390;BME280;34643;47.964;7.982;2024-03-23T01:05:47;96116.94;;;19.91;54.06
48390;BME280;34643;47.964;7.982;2024-03-23T01:08:13;96095.19;;;19.91;54.12
48390;BME280;34643;47.964;7.982;2024-03-23T01:10:39;96092.56;;;19.91;54.19
48390;BME280;34643;47.964;7.982;2024-03-23T01:13:04;96086.50;;;19.90;54.07
48390;BME280;34643;47.964;7.982;2024-03-23T01:15:29;96094.38;;;19.90;54.06
48390;BME280;34643;47.964;7.982;2024-03-23T01:17:54;96091.06;;;19.88;54.15
48390;BME280;34643;47.964;7.982;2024-03-23T01:20:20;96078.78;;;19.89;54.15
48390;BME280;34643;47.964;7.982;2024-03-23T01:22:45;96084.03;;;19.89;54.12
48390;BME280;34643;47.964;7.982;2024-03-23T01:25:10;96072.75;;;19.88;54.19
48390;BME280;34643;47.964;7.982;2024-03-23T01:27:36;96072.88;;;19.87;54.06
48390;BME280;34643;47.964;7.982;2024-03-23T01:30:01;96072.88;;;19.87;54.08
48390;BME280;34643;47.964;7.982;2024-03-23T01:32:26;96072.06;;;19.86;54.10
48390;BME280;34643;47.964;7.982;2024-03-23T01:34:52;96079.06;;;19.86;54.06
48390;BME280;34643;47.964;7.982;2024-03-23T01:37:17;96082.69;;;19.85;54.01
48390;BME280;34643;47.964;7.982;2024-03-23T01:39:42;96065.16;;;19.85;54.07
48390;BME280;34643;47.964;7.982;2024-03-23T01:42:07;96073.03;;;19.85;54.03
48390;BME280;34643;47.964;7.982;2024-03-23T01:44:33;96068.75;;;19.84;54.04
48390;BME280;34643;47.964;7.982;2024-03-23T01:46:58;96072.34;;;19.83;54.09
48390;BME280;34643;47.964;7.982;2024-03-23T01:49:24;96069.75;;;19.83;54.06
48390;BME280;34643;47.964;7.982;2024-03-23T01:51:49;96059.25;;;19.83;54.06
48390;BME280;34643;47.964;7.982;2024-03-23T01:54:15;96052.38;;;19.82;54.05
48390;BME280;34643;47.964;7.982;2024-03-23T01:56:40;96045.34;;;19.83;54.05
48390;BME280;34643;47.964;7.982;2024-03-23T01:59:05;96054.16;;;19.82;54.03
48390;BME280;34643;47.964;7.982;2024-03-23T02:01:31;96057.75;;;19.81;54.07
48390;BME280;34643;47.964;7.982;2024-03-23T02:03:56;96058.59;;;19.81;54.05
48390;BME280;34643;47.964;7.982;2024-03-23T02:06:22;96060.34;;;19.81;54.01
48390;BME280;34643;47.964;7.982;2024-03-23T02:08:49;96054.31;;;19.80;54.08
48390;BME280;34643;47.964;7.982;2024-03-23T02:11:14;96062.16;;;19.80;54.19
48390;BME280;34643;47.964;7.982;2024-03-23T02:13:39;96060.53;;;19.79;54.00
48390;BME280;34643;47.964;7.982;2024-03-23T02:16:05;96043.97;;;19.79;54.17
48390;BME280;34643;47.964;7.982;2024-03-23T02:18:30;96054.44;;;19.79;54.09
48390;BME280;34643;47.964;7.982;2024-03-23T02:20:56;96058.88;;;19.78;54.12
48390;BME280;34643;47.964;7.982;2024-03-23T02:23:21;96059.03;;;19.77;54.02
48390;BME280;34643;47.964;7.982;2024-03-23T02:25:46;96055.44;;;19.78;54.13
48390;BME280;34643;47.964;7.982;2024-03-23T02:28:12;96055.44;;;19.78;54.09
48390;BME280;34643;47.964;7.982;2024-03-23T02:30:37;96067.69;;;19.77;54.04
48390;BME280;34643;47.964;7.982;2024-03-23T02:33:03;96066.06;;;19.76;54.03
48390;BME280;34643;47.964;7.982;2024-03-23T02:35:28;96052.16;;;19.75;54.05
48390;BME280;34643;47.964;7.982;2024-03-23T02:37:53;96053.91;;;19.75;54.13
48390;BME280;34643;47.964;7.982;2024-03-23T02:40:21;96045.25;;;19.74;54.09
48390;BME280;34643;47.964;7.982;2024-03-23T02:42:46;96047.88;;;19.74;54.04
48390;BME280;34643;47.964;7.982;2024-03-23T02:45:11;96049.66;;;19.74;54.04
48390;BME280;34643;47.964;7.982;2024-03-23T02:47:37;96035.72;;;19.73;54.03
48390;BME280;34643;47.964;7.982;2024-03-23T02:50:02;96034.06;;;19.72;53.98
48390;BME280;34643;47.964;7.982;2024-03-23T02:52:27;96037.50;;;19.73;53.99
48390;BME280;34643;47.964;7.982;2024-03-23T02:54:53;96021.94;;;19.71;54.07
48390;BME280;34643;47.964;7.982;2024-03-23T02:57:18;96028.03;;;19.72;53.98
48390;BME280;34643;47.964;7.982;2024-03-23T02:59:44;96017.56;;;19.72;54.06
48390;BME280;34643;47.964;7.982;2024-03-23T03:02:09;96020.31;;;19.70;53.99
48390;BME280;34643;47.964;7.982;2024-03-23T03:04:34;96012.47;;;19.70;54.01
48390;BME280;34643;47.964;7.982;2024-03-23T03:07:00;96009.00;;;19.70;54.02
48390;BME280;34643;47.964;7.982;2024-03-23T03:09:25;96002.13;;;19.69;54.05
48390;BME280;34643;47.964;7.982;2024-03-23T03:11:50;95998.66;;;19.68;54.06
48390;BME280;34643;47.964;7.982;2024-03-23T03:14:15;96000.47;;;19.68;54.10
48390;BME280;34643;47.964;7.982;2024-03-23T03:16:41;95997.84;;;19.68;54.17
48390;BME280;34643;47.964;7.982;2024-03-23T03:19:06;96005.69;;;19.68;54.01
48390;BME280;34643;47.964;7.982;2024-03-23T03:21:31;95994.41;;;19.67;54.08
48390;BME280;34643;47.964;7.982;2024-03-23T03:23:57;95984.91;;;19.66;54.30
48390;BME280;34643;47.964;7.982;2024-03-23T03:26:22;95989.19;;;19.67;54.10
48390;BME280;34643;47.964;7.982;2024-03-23T03:28:48;95989.31;;;19.66;54.26
48390;BME280;34643;47.964;7.982;2024-03-23T03:31:17;95981.47;;;19.66;54.15
48390;BME280;34643;47.964;7.982;2024-03-23T03:33:43;95962.34;;;19.65;54.30
48390;BME280;34643;47.964;7.982;2024-03-23T03:36:08;95969.34;;;19.65;54.03
48390;BME280;34643;47.964;7.982;2024-03-23T03:38:34;95956.25;;;19.65;54.04
48390;BME280;34643;47.964;7.982;2024-03-23T03:41:03;95935.47;;;19.63;54.04
48390;BME280;34643;47.964;7.982;2024-03-23T03:43:28;95938.91;;;19.64;54.25
48390;BME280;34643;47.964;7.982;2024-03-23T03:45:54;95955.59;;;19.63;54.13
48390;BME280;34643;47.964;7.982;2024-03-23T03:48:20;95954.75;;;19.62;54.06
48390;BME280;34643;47.964;7.982;2024-03-23T03:50:45;95951.34;;;19.62;54.10
48390;BME280;34643;47.964;7.982;2024-03-23T03:53:10;95945.25;;;19.61;54.17
48390;BME280;34643;47.964;7.982;2024-03-23T03:55:36;95948.72;;;19.62;54.13
48390;BME280;34643;47.964;7.982;2024-03-23T03:58:01;95953.94;;;19.62;54.11
48390;BME280;34643;47.964;7.982;2024-03-23T04:00:27;95949.69;;;19.61;54.16
48390;BME280;34643;47.964;7.982;2024-03-23T04:02:52;95930.53;;;19.60;54.05
48390;BME280;34643;47.964;7.982;2024-03-23T04:05:17;95926.13;;;19.61;54.12
48390;BME280;34643;47.964;7.982;2024-03-23T04:07:44;95928.06;;;19.59;54.08
48390;BME280;34643;47.964;7.982;2024-03-23T04:10:09;95920.22;;;19.59;54.14
48390;BME280;34643;47.964;7.982;2024-03-23T04:12:34;95914.97;;;19.59;54.22
48390;BME280;34643;47.964;7.982;2024-03-23T04:15:00;95905.47;;;19.57;53.93
48390;BME280;34643;47.964;7.982;2024-03-23T04:17:26;95893.22;;;19.58;54.08
48390;BME280;34643;47.964;7.982;2024-03-23T04:19:56;95897.63;;;19.57;54.11
48390;BME280;34643;47.964;7.982;2024-03-23T04:22:22;95931.63;;;19.57;54.23
48390;BME280;34643;47.964;7.982;2024-03-23T04:24:49;95925.59;;;19.57;54.13
48390;BME280;34643;47.964;7.982;2024-03-23T04:27:14;95922.16;;;19.56;54.18
48390;BME280;34643;47.964;7.982;2024-03-23T04:29:39;95890.75;;;19.56;54.09
48390;BME280;34643;47.964;7.982;2024-03-23T04:32:05;95921.34;;;19.56;54.08
48390;BME280;34643;47.964;7.982;2024-03-23T04:34:30;95917.88;;;19.55;54.16
48390;BME280;34643;47.964;7.982;2024-03-23T04:36:55;95911.84;;;19.55;54.15
48390;BME280;34643;47.964;7.982;2024-03-23T04:39:21;95916.25;;;19.54;54.18
48390;BME280;34643;47.964;7.982;2024-03-23T04:41:46;95908.41;;;19.54;54.10
48390;BME280;34643;47.964;7.982;2024-03-23T04:44:11;95907.72;;;19.52;54.18
48390;BME280;34643;47.964;7.982;2024-03-23T04:46:37;95904.13;;;19.53;54.13
48390;BME280;34643;47.964;7.982;2024-03-23T04:49:03;95918.19;;;19.52;54.22
48390;BME280;34643;47.964;7.982;2024-03-23T04:51:34;95921.78;;;19.51;54.09
48390;BME280;34643;47.964;7.982;2024-03-23T04:54:00;95932.25;;;19.51;54.09
48390;BME280;34643;47.964;7.982;2024-03-23T04:56:25;95943.66;;;19.50;54.20
48390;BME280;34643;47.964;7.982;2024-03-23T04:58:50;95951.53;;;19.50;54.16
48390;BME280;34643;47.964;7.982;2024-03-23T05:01:16;95951.53;;;19.50;54.21
48390;BME280;34643;47.964;7.982;2024-03-23T05:03:41;95948.91;;;19.50;54.21
48390;BME280;34643;47.964;7.982;2024-03-23T05:06:06;95957.75;;;19.49;54.21
48390;BME280;34643;47.964;7.982;2024-03-23T05:08:32;95958.72;;;19.48;54.03
48390;BME280;34643;47.964;7.982;2024-03-23T05:10:57;95964.75;;;19.49;54.24
48390;BME280;34643;47.964;7.982;2024-03-23T05:13:22;95944.81;;;19.48;54.24
48390;BME280;34643;47.964;7.982;2024-03-23T05:15:53;95946.59;;;19.47;54.16
48390;BME280;34643;47.964;7.982;2024-03-23T05:18:18;95957.06;;;19.47;54.23
48390;BME280;34643;47.964;7.982;2024-03-23T05:20:44;95945.75;;;19.47;54.26
48390;BME280;34643;47.964;7.982;2024-03-23T05:23:09;95972.78;;;19.47;54.21
48390;BME280;34643;47.964;7.982;2024-03-23T05:25:34;95954.59;;;19.46;54.25
48390;BME280;34643;47.964;7.982;2024-03-23T05:27:59;95979.94;;;19.45;54.17
48390;BME280;34643;47.964;7.982;2024-03-23T05:30:25;96000.88;;;19.45;54.20
48390;BME280;34643;47.964;7.982;2024-03-23T05:32:50;95994.81;;;19.45;54.25
48390;BME280;34643;47.964;7.982;2024-03-23T05:35:15;96012.31;;;19.44;54.25
48390;BME280;34643;47.964;7.982;2024-03-23T05:37:40;95989.72;;;19.43;54.21
48390;BME280;34643;47.964;7.982;2024-03-23T05:40:06;96001.03;;;19.44;54.21
48390;BME280;34643;47.964;7.982;2024-03-23T05:42:33;96002.81;;;19.43;54.24
48390;BME280;34643;47.964;7.982;2024-03-23T05:44:58;96001.19;;;19.42;54.28
48390;BME280;34643;47.964;7.982;2024-03-23T05:47:24;96009.97;;;19.41;54.21
48390;BME280;34643;47.964;7.982;2024-03-23T05:49:49;96010.81;;;19.42;54.30
48390;BME280;34643;47.964;7.982;2024-03-23T05:52:16;96020.44;;;19.41;54.22
48390;BME280;34643;47.964;7.982;2024-03-23T05:54:42;96007.50;;;19.40;54.35
48390;BME280;34643;47.964;7.982;2024-03-23T05:57:08;96015.22;;;19.41;54.22
48390;BME280;34643;47.964;7.982;2024-03-23T05:59:33;96024.06;;;19.40;54.23
48390;BME280;34643;47.964;7.982;2024-03-23T06:01:59;96031.91;;;19.40;54.15
48390;BME280;34643;47.964;7.982;2024-03-23T06:04:24;96048.56;;;19.39;54.24
48390;BME280;34643;47.964;7.982;2024-03-23T06:06:50;96025.00;;;19.39;54.24
48390;BME280;34643;47.964;7.982;2024-03-23T06:09:17;96040.72;;;19.39;54.20
48390;BME280;34643;47.964;7.982;2024-03-23T06:11:42;96044.28;;;19.38;54.36
48390;BME280;34643;47.964;7.982;2024-03-23T06:14:08;96052.13;;;19.38;54.29
48390;BME280;34643;47.964;7.982;2024-03-23T06:16:33;96073.91;;;19.38;54.39
48390;BME280;34643;47.964;7.982;2024-03-23T06:18:58;96060.69;;;19.40;54.34
48390;BME280;34643;47.964;7.982;2024-03-23T06:21:23;96084.06;;;19.42;54.30
48390;BME280;34643;47.964;7.982;2024-03-23T06:23:51;96098.97;;;19.41;54.45
48390;BME280;34643;47.964;7.982;2024-03-23T06:26:20;96106.66;;;19.43;54.56
48390;BME280;34643;47.964;7.982;2024-03-23T06:28:46;96110.94;;;19.44;54.43
48390;BME280;34643;47.964;7.982;2024-03-23T06:31:12;96125.81;;;19.43;54.54
48390;BME280;34643;47.964;7.982;2024-03-23T06:33:37;96154.47;;;19.45;54.54
48390;BME280;34643;47.964;7.982;2024-03-23T06:36:03;96163.13;;;19.45;54.69
48390;BME280;34643;47.964;7.982;2024-03-23T06:38:29;96175.25;;;19.46;54.61
48390;BME280;34643;47.964;7.982;2024-03-23T06:40:54;96170.03;;;19.46;54.70
48390;BME280;34643;47.964;7.982;2024-03-23T06:43:19;96166.44;;;19.47;54.80
48390;BME280;34643;47.964;7.982;2024-03-23T06:45:52;96184.59;;;19.49;54.88
48390;BME280;34643;47.964;7.982;2024-03-23T06:48:17;96182.84;;;19.49;54.94
48390;BME280;34643;47.964;7.982;2024-03-23T06:50:42;96193.31;;;19.49;54.89
48390;BME280;34643;47.964;7.982;2024-03-23T06:53:07;96192.31;;;19.50;54.82
48390;BME280;34643;47.964;7.982;2024-03-23T06:55:33;96192.31;;;19.50;54.94
48390;BME280;34643;47.964;7.982;2024-03-23T06:57:58;96210.50;;;19.52;54.94
48390;BME280;34643;47.964;7.982;2024-03-23T07:00:23;96216.59;;;19.52;54.95
48390;BME280;34643;47.964;7.982;2024-03-23T07:02:50;96226.22;;;19.52;55.01
48390;BME280;34643;47.964;7.982;2024-03-23T07:05:15;96234.75;;;19.54;55.06
48390;BME280;34643;47.964;7.982;2024-03-23T07:07:40;96248.53;;;19.56;55.12
48390;BME280;34643;47.964;7.982;2024-03-23T07:10:06;96258.16;;;19.55;55.13
48390;BME280;34643;47.964;7.982;2024-03-23T07:12:31;96272.91;;;19.56;55.06
48390;BME280;34643;47.964;7.982;2024-03-23T07:14:56;96275.53;;;19.56;55.09
48390;BME280;34643;47.964;7.982;2024-03-23T07:17:22;96278.16;;;19.56;54.96
48390;BME280;34643;47.964;7.982;2024-03-23T07:19:47;96291.25;;;19.56;55.00
48390;BME280;34643;47.964;7.982;2024-03-23T07:22:13;96293.84;;;19.56;54.98
48390;BME280;34643;47.964;7.982;2024-03-23T07:24:38;96286.81;;;19.57;55.03
48390;BME280;34643;47.964;7.982;2024-03-23T07:27:04;96292.88;;;19.57;54.97
48390;BME280;34643;47.964;7.982;2024-03-23T07:29:29;96300.72;;;19.57;54.94
48390;BME280;34643;47.964;7.982;2024-03-23T07:31:55;96310.25;;;19.59;55.02
48390;BME280;34643;47.964;7.982;2024-03-23T07:34:21;96313.81;;;19.57;54.91
48390;BME280;34643;47.964;7.982;2024-03-23T07:36:47;96313.81;;;19.57;55.03
48390;BME280;34643;47.964;7.982;2024-03-23T07:39:12;96315.47;;;19.59;54.89
48390;BME280;34643;47.964;7.982;2024-03-23T07:41:37;96330.38;;;19.58;55.01
48390;BME280;34643;47.964;7.982;2024-03-23T07:44:03;96339.03;;;19.59;54.85
48390;BME280;34643;47.964;7.982;2024-03-23T07:46:28;96346.09;;;19.58;54.93
48390;BME280;34643;47.964;7.982;2024-03-23T07:48:53;96341.78;;;19.57;54.89
48390;BME280;34643;47.964;7.982;2024-03-23T07:51:22;96360.00;;;19.59;54.94
48390;BME280;34643;47.964;7.982;2024-03-23T07:53:48;96368.78;;;19.57;54.89
48390;BME280;34643;47.964;7.982;2024-03-23T07:56:17;96379.25;;;19.57;54.82
48390;BME280;34643;47.964;7.982;2024-03-23T07:58:46;96390.59;;;19.58;54.86
48390;BME280;34643;47.964;7.982;2024-03-23T08:01:12;96387.13;;;19.57;54.88
48390;BME280;34643;47.964;7.982;2024-03-23T08:03:40;96385.47;;;19.56;54.96
48390;BME280;34643;47.964;7.982;2024-03-23T08:06:12;96390.72;;;19.56;54.82
48390;BME280;34643;47.964;7.982;2024-03-23T08:08:38;96409.03;;;19.56;54.73
48390;BME280;34643;47.964;7.982;2024-03-23T08:11:04;96422.13;;;19.56;54.81
48390;BME280;34643;47.964;7.982;2024-03-23T08:13:29;96427.38;;;19.56;54.75
48390;BME280;34643;47.964;7.982;2024-03-23T08:15:58;96448.31;;;19.56;54.84
48390;BME280;34643;47.964;7.982;2024-03-23T08:18:24;96454.50;;;19.55;54.68
48390;BME280;34643;47.964;7.982;2024-03-23T08:20:59;96460.59;;;19.56;54.89
48390;BME280;34643;47.964;7.982;2024-03-23T08:23:24;96462.34;;;19.55;54.69
48390;BME280;34643;47.964;7.982;2024-03-23T08:25:50;96451.88;;;19.55;54.77
48390;BME280;34643;47.964;7.982;2024-03-23T08:28:15;96451.06;;;19.55;54.74
48390;BME280;34643;47.964;7.982;2024-03-23T08:30:40;96463.34;;;19.54;54.74
48390;BME280;34643;47.964;7.982;2024-03-23T08:33:06;96468.56;;;19.54;54.70
48390;BME280;34643;47.964;7.982;2024-03-23T08:35:31;96475.56;;;19.54;54.60
48390;BME280;34643;47.964;7.982;2024-03-23T08:37:56;96481.66;;;19.54;54.68
48390;BME280;34643;47.964;7.982;2024-03-23T08:40:21;96487.72;;;19.55;54.67
48390;BME280;34643;47.964;7.982;2024-03-23T08:42:47;96492.25;;;19.53;54.75
48390;BME280;34643;47.964;7.982;2024-03-23T08:45:12;96500.78;;;19.55;54.60
48390;BME280;34643;47.964;7.982;2024-03-23T08:47:38;96497.34;;;19.54;54.69
48390;BME280;34643;47.964;7.982;2024-03-23T08:50:03;96504.38;;;19.54;54.64
48390;BME280;34643;47.964;7.982;2024-03-23T08:52:28;96505.34;;;19.53;54.67
48390;BME280;34643;47.964;7.982;2024-03-23T08:54:55;96508.09;;;19.51;54.57
48390;BME280;34643;47.964;7.982;2024-03-23T08:57:21;96511.53;;;19.52;54.57
48390;BME280;34643;47.964;7.982;2024-03-23T08:59:46;96513.31;;;19.51;54.67
48390;BME280;34643;47.964;7.982;2024-03-23T09:02:11;96521.19;;;19.51;54.67
48390;BME280;34643;47.964;7.982;2024-03-23T09:04:37;96512.50;;;19.51;54.56
48390;BME280;34643;47.964;7.982;2024-03-23T09:07:02;96505.59;;;19.50;54.61
48390;BME280;34643;47.964;7.982;2024-03-23T09:09:27;96502.16;;;19.49;54.61
48390;BME280;34643;47.964;7.982;2024-03-23T09:11:53;96501.31;;;19.49;54.59
48390;BME280;34643;47.964;7.982;2024-03-23T09:14:18;96492.50;;;19.50;54.65
48390;BME280;34643;47.964;7.982;2024-03-23T09:16:44;96498.69;;;19.49;54.58
48390;BME280;34643;47.964;7.982;2024-03-23T09:19:09;96484.78;;;19.48;54.68
48390;BME280;34643;47.964;7.982;2024-03-23T09:21:35;96488.22;;;19.49;54.65
48390;BME280;34643;47.964;7.982;2024-03-23T09:24:00;96490.03;;;19.48;54.59
48390;BME280;34643;47.964;7.982;2024-03-23T09:26:25;96497.06;;;19.48;54.59
48390;BME280;34643;47.964;7.982;2024-03-23T09:28:51;96501.47;;;19.47;54.67
48390;BME280;34643;47.964;7.982;2024-03-23T09:31:16;96498.88;;;19.47;54.44
48390;BME280;34643;47.964;7.982;2024-03-23T09:33:42;96495.38;;;19.47;54.48
48390;BME280;34643;47.964;7.982;2024-03-23T09:36:07;96488.38;;;19.47;54.48
48390;BME280;34643;47.964;7.982;2024-03-23T09:38:33;96491.13;;;19.46;54.53
48390;BME280;34643;47.964;7.982;2024-03-23T09:40:58;96485.91;;;19.46;54.53
48390;BME280;34643;47.964;7.982;2024-03-23T09:43:24;96492.91;;;19.45;54.45
48390;BME280;34643;47.964;7.982;2024-03-23T09:45:50;96479.81;;;19.45;54.40
48390;BME280;34643;47.964;7.982;2024-03-23T09:48:15;96467.56;;;19.46;54.46
48390;BME280;34643;47.964;7.982;2024-03-23T09:50:42;96474.59;;;19.45;54.49
48390;BME280;34643;47.964;7.982;2024-03-23T09:53:07;96480.78;;;19.44;54.42
48390;BME280;34643;47.964;7.982;2024-03-23T09:55:33;96466.72;;;19.45;54.39
48390;BME280;34643;47.964;7.982;2024-03-23T09:57:59;96467.56;;;19.46;54.42
48390;BME280;34643;47.964;7.982;2024-03-23T10:00:24;96465.09;;;19.44;54.40
48390;BME280;34643;47.964;7.982;2024-03-23T10:02:50;96470.31;;;19.44;54.38
48390;BME280;34643;47.964;7.982;2024-03-23T10:05:22;96460.69;;;19.45;54.40
48390;BME280;34643;47.964;7.982;2024-03-23T10:07:51;96454.63;;;19.44;54.54
48390;BME280;34643;47.964;7.982;2024-03-23T10:10:16;96462.34;;;19.46;54.59
48390;BME280;34643;47.964;7.982;2024-03-23T10:12:46;96467.72;;;19.44;54.88
48390;BME280;34643;47.964;7.982;2024-03-23T10:15:18;96462.22;;;19.47;54.67
48390;BME280;34643;47.964;7.982;2024-03-23T10:17:44;96459.59;;;19.47;54.74
48390;BME280;34643;47.964;7.982;2024-03-23T10:20:10;96451.75;;;19.47;54.58
48390;BME280;34643;47.964;7.982;2024-03-23T10:22:39;96463.97;;;19.47;54.54
48390;BME280;34643;47.964;7.982;2024-03-23T10:25:08;96460.41;;;19.48;54.45
48390;BME280;34643;47.964;7.982;2024-03-23T10:27:34;96455.19;;;19.48;54.57
48390;BME280;34643;47.964;7.982;2024-03-23T10:30:07;96463.97;;;19.47;54.65
48390;BME280;34643;47.964;7.982;2024-03-23T10:32:32;96465.78;;;19.46;54.54
48390;BME280;34643;47.964;7.982;2024-03-23T10:35:06;96478.06;;;19.46;54.42
48390;BME280;34643;47.964;7.982;2024-03-23T10:37:38;96454.50;;;19.46;54.41
48390;BME280;34643;47.964;7.982;2024-03-23T10:40:04;96466.72;;;19.45;54.50
48390;BME280;34643;47.964;7.982;2024-03-23T10:42:30;96471.16;;;19.45;54.45
48390;BME280;34643;47.964;7.982;2024-03-23T10:44:58;96473.91;;;19.43;54.49
48390;BME280;34643;47.964;7.982;2024-03-23T10:47:23;96484.38;;;19.43;54.52
48390;BME280;34643;47.964;7.982;2024-03-23T10:49:49;96520.06;;;19.44;54.21
48390;BME280;34643;47.964;7.982;2024-03-23T10:52:14;96534.09;;;19.43;54.33
48390;BME280;34643;47.964;7.982;2024-03-23T10:54:39;96553.41;;;19.42;54.44
48390;BME280;34643;47.964;7.982;2024-03-23T10:57:08;96548.03;;;19.44;54.36
48390;BME280;34643;47.964;7.982;2024-03-23T10:59:35;96562.06;;;19.43;54.35
48390;BME280;34643;47.964;7.982;2024-03-23T11:02:02;96580.25;;;19.44;54.42
48390;BME280;34643;47.964;7.982;2024-03-23T11:04:29;96586.31;;;19.45;54.31
48390;BME280;34643;47.964;7.982;2024-03-23T11:06:54;96590.72;;;19.44;54.43
48390;BME280;34643;47.964;7.982;2024-03-23T11:12:33;96616.91;;;19.44;54.31
48390;BME280;34643;47.964;7.982;2024-03-23T11:14:53;96608.06;;;19.45;54.18
48390;BME280;34643;47.964;7.982;2024-03-23T11:17:20;96607.81;;;19.48;54.49
48390;BME280;34643;47.964;7.982;2024-03-23T11:19:52;96609.50;;;19.49;54.21
48390;BME280;34643;47.964;7.982;2024-03-23T11:22:35;96609.50;;;19.49;54.27
48390;BME280;34643;47.964;7.982;2024-03-23T11:25:24;96601.63;;;19.49;54.14
48390;BME280;34643;47.964;7.982;2024-03-23T11:27:52;96605.88;;;19.50;54.43
48390;BME280;34643;47.964;7.982;2024-03-23T11:30:18;96598.03;;;19.50;54.27
48390;BME280;34643;47.964;7.982;2024-03-23T11:32:46;96597.22;;;19.50;54.30
48390;BME280;34643;47.964;7.982;2024-03-23T11:38:01;96592.81;;;19.50;54.33
48390;BME280;34643;47.964;7.982;2024-03-23T11:40:26;96596.28;;;19.51;54.20
48390;BME280;34643;47.964;7.982;2024-03-23T11:42:55;96597.22;;;19.50;54.16
48390;BME280;34643;47.964;7.982;2024-03-23T11:45:20;96597.59;;;19.45;54.25
48390;BME280;34643;47.964;7.982;2024-03-23T11:47:45;96593.78;;;19.49;54.25
48390;BME280;34643;47.964;7.982;2024-03-23T11:50:18;96597.22;;;19.50;54.01
48390;BME280;34643;47.964;7.982;2024-03-23T11:52:44;96583.31;;;19.49;53.99
48390;BME280;34643;47.964;7.982;2024-03-23T11:55:09;96584.94;;;19.50;53.85
48390;BME280;34643;47.964;7.982;2024-03-23T11:57:34;96584.94;;;19.50;54.27
48390;BME280;34643;47.964;7.982;2024-03-23T11:59:59;96594.03;;;19.46;54.32
48390;BME280;34643;47.964;7.982;2024-03-23T12:02:25;96587.13;;;19.45;54.21
48390;BME280;34643;47.964;7.982;2024-03-23T12:04:50;96577.38;;;19.47;54.18
48390;BME280;34643;47.964;7.982;2024-03-23T12:07:16;96577.38;;;19.47;53.54
48390;BME280;34643;47.964;7.982;2024-03-23T12:10:03;96563.19;;;19.50;53.33
48390;BME280;34643;47.964;7.982;2024-03-23T12:12:29;96551.66;;;19.52;53.28
48390;BME280;34643;47.964;7.982;2024-03-23T12:15:01;96551.66;;;19.52;53.18
48390;BME280;34643;47.964;7.982;2024-03-23T12:17:27;96548.19;;;19.52;53.34
48390;BME280;34643;47.964;7.982;2024-03-23T12:19:52;96540.31;;;19.52;53.29
48390;BME280;34643;47.964;7.982;2024-03-23T12:22:21;96526.28;;;19.53;53.32
48390;BME280;34643;47.964;7.982;2024-03-23T12:24:46;96522.84;;;19.52;53.26
48390;BME280;34643;47.964;7.982;2024-03-23T12:27:11;96525.47;;;19.52;53.28
48390;BME280;34643;47.964;7.982;2024-03-23T12:29:37;96522.84;;;19.52;53.31
48390;BME280;34643;47.964;7.982;2024-03-23T12:32:04;96515.13;;;19.51;53.40
48390;BME280;34643;47.964;7.982;2024-03-23T12:34:29;96503.69;;;19.52;53.46
48390;BME280;34643;47.964;7.982;2024-03-23T12:36:58;96505.47;;;19.51;53.40
48390;BME280;34643;47.964;7.982;2024-03-23T12:39:23;96501.19;;;19.50;53.35
48390;BME280;34643;47.964;7.982;2024-03-23T12:41:49;96502.03;;;19.51;53.29
48390;BME280;34643;47.964;7.982;2024-03-23T12:44:15;96501.19;;;19.50;53.34
48390;BME280;34643;47.964;7.982;2024-03-23T12:46:43;96501.19;;;19.50;53.39
48390;BME280;34643;47.964;7.982;2024-03-23T12:49:09;96500.38;;;19.50;53.36
48390;BME280;34643;47.964;7.982;2024-03-23T12:51:34;96493.47;;;19.49;53.49
48390;BME280;34643;47.964;7.982;2024-03-23T12:53:59;96493.63;;;19.47;53.38
48390;BME280;34643;47.964;7.982;2024-03-23T12:56:25;96486.47;;;19.49;53.47
48390;BME280;34643;47.964;7.982;2024-03-23T12:58:50;96481.34;;;19.48;53.52
48390;BME280;34643;47.964;7.982;2024-03-23T13:01:20;96469.09;;;19.48;53.41
48390;BME280;34643;47.964;7.982;2024-03-23T13:03:49;96463.97;;;19.47;53.41
48390;BME280;34643;47.964;7.982;2024-03-23T13:06:14;96474.31;;;19.48;53.43
48390;BME280;34643;47.964;7.982;2024-03-23T13:08:40;96476.13;;;19.48;53.42
48390;BME280;34643;47.964;7.982;2024-03-23T13:11:07;96466.47;;;19.48;53.46
48390;BME280;34643;47.964;7.982;2024-03-23T13:13:34;96447.31;;;19.48;53.48
48390;BME280;34643;47.964;7.982;2024-03-23T13:15:59;96471.84;;;19.47;53.59
48390;BME280;34643;47.964;7.982;2024-03-23T13:18:24;96458.75;;;19.47;53.48
48390;BME280;34643;47.964;7.982;2024-03-23T13:20:50;96462.34;;;19.46;53.44
48390;BME280;34643;47.964;7.982;2024-03-23T13:23:15;96457.09;;;19.46;53.48
48390;BME280;34643;47.964;7.982;2024-03-23T13:25:40;96448.41;;;19.45;53.61
48390;BME280;34643;47.964;7.982;2024-03-23T13:28:06;96456.25;;;19.45;53.43
48390;BME280;34643;47.964;7.982;2024-03-23T13:30:31;96448.41;;;19.45;53.55
48390;BME280;34643;47.964;7.982;2024-03-23T13:32:56;96457.94;;;19.46;53.47
48390;BME280;34643;47.964;7.982;2024-03-23T13:35:21;96456.25;;;19.45;53.44
48390;BME280;34643;47.964;7.982;2024-03-23T13:37:47;96451.03;;;19.45;53.50
48390;BME280;34643;47.964;7.982;2024-03-23T13:40:13;96443.34;;;19.44;53.56
48390;BME280;34643;47.964;7.982;2024-03-23T13:42:38;96439.06;;;19.43;53.60
48390;BME280;34643;47.964;7.982;2024-03-23T13:45:04;96436.44;;;19.43;53.50
48390;BME280;34643;47.964;7.982;2024-03-23T13:47:29;96425.97;;;19.43;53.56
48390;BME280;34643;47.964;7.982;2024-03-23T13:49:54;96425.97;;;19.43;53.57
48390;BME280;34643;47.964;7.982;2024-03-23T13:52:21;96419.91;;;19.42;53.52